Time;durP1;ratioP1;P1;durP2;ratioP2;P2;SDS_P1;SDS_P2;PMS_P1;PMS_P2;Temp;Humidity;BMP_temperature;BMP_pressure;BME280_temperature;BME280_humidity;BME280_pressure;Samples;Min_cycle;Max_cycle;Signal;HPM_P1;HPM_P2
2022/09/15 00:01:44;;;;;;;11.87;3.77;;;13.70;99.90;;;-142.72;100.00;65101.41;4927630;29;20408;-73
2022/09/15 00:04:13;;;;;;;12.10;4.20;;;13.60;99.90;;;-142.72;100.00;65101.41;4925198;29;20540;-74
2022/09/15 00:06:42;;;;;;;8.50;4.03;;;13.50;99.90;;;-142.72;100.00;65101.41;4931169;28;20831;-73
2022/09/15 00:09:13;;;;;;;10.63;4.37;;;13.40;99.90;;;-142.72;100.00;65101.41;4931073;29;20439;-74
2022/09/15 00:11:41;;;;;;;9.53;4.10;;;13.30;99.90;;;-142.72;100.00;65101.41;4933185;29;20932;-74
2022/09/15 00:14:10;;;;;;;6.13;3.20;;;13.30;99.90;;;-142.72;100.00;65101.41;4938529;29;20411;-72
2022/09/15 00:16:40;;;;;;;10.70;4.60;;;13.30;99.90;;;-142.72;100.00;65101.41;4926558;28;20439;-74
2022/09/15 00:19:09;;;;;;;8.07;5.27;;;13.30;99.90;;;-142.72;100.00;65101.41;4932608;29;20434;-72
2022/09/15 00:21:41;;;;;;;6.40;4.23;;;13.30;99.90;;;-142.72;100.00;65101.41;4928020;29;20454;-73
2022/09/15 00:24:11;;;;;;;10.17;4.30;;;13.40;99.90;;;-142.72;100.00;65101.41;4938032;29;20959;-73
2022/09/15 00:26:39;;;;;;;7.73;3.93;;;13.60;99.90;;;-142.72;100.00;65101.41;4940742;28;21005;-73
2022/09/15 00:29:11;;;;;;;5.43;3.40;;;13.70;99.90;;;-142.72;100.00;65101.41;4940334;29;20426;-73
2022/09/15 00:31:41;;;;;;;10.57;4.40;;;13.70;99.90;;;-142.72;100.00;65101.41;4941317;29;20445;-72
2022/09/15 00:34:13;;;;;;;14.37;4.30;;;13.70;99.90;;;-142.72;100.00;65101.41;4927453;29;20429;-72
2022/09/15 00:36:42;;;;;;;10.57;5.10;;;13.60;99.90;;;-142.72;100.00;65101.41;4923593;29;20491;-72
2022/09/15 00:39:11;;;;;;;10.60;3.83;;;13.60;99.90;;;-142.72;100.00;65101.41;4927609;29;20504;-73
2022/09/15 00:41:41;;;;;;;9.17;4.07;;;13.50;99.90;;;-142.72;100.00;65101.41;4928441;29;20511;-73
2022/09/15 00:44:51;;;;;;;5.93;4.57;;;13.50;99.90;;;-142.72;100.00;65101.41;4935691;29;20464;-74
2022/09/15 00:47:26;;;;;;;10.70;5.07;;;13.30;99.90;;;-142.72;100.00;65101.41;4938635;29;20452;-73
2022/09/15 00:50:01;;;;;;;4.90;4.13;;;13.20;99.90;;;-142.72;100.00;65101.41;4922847;29;20424;-72
2022/09/15 00:52:39;;;;;;;9.20;3.90;;;13.10;99.90;;;-142.72;100.00;65101.41;4937633;29;20618;-73
2022/09/15 00:55:14;;;;;;;8.07;4.50;;;13.00;99.90;;;-142.72;100.00;65101.41;4947551;28;20432;-73
2022/09/15 00:57:50;;;;;;;7.70;4.10;;;12.90;99.90;;;-142.72;100.00;65101.41;4926322;29;20439;-73
2022/09/15 01:00:22;;;;;;;11.70;4.70;;;12.90;99.90;;;-142.72;100.00;65101.41;4934388;29;20932;-73
2022/09/15 01:02:52;;;;;;;12.33;5.10;;;12.90;99.90;;;-142.72;100.00;65101.41;4926725;29;20441;-73
2022/09/15 01:05:24;;;;;;;7.57;4.70;;;12.80;99.90;;;-142.72;100.00;65101.41;4928938;29;20423;-71
2022/09/15 01:08:00;;;;;;;13.83;5.33;;;12.80;99.90;;;-142.72;100.00;65101.41;4926063;29;20435;-72
2022/09/15 01:10:36;;;;;;;14.17;5.00;;;12.70;99.90;;;-142.72;100.00;65101.41;4932602;29;20414;-73
2022/09/15 01:13:08;;;;;;;8.27;4.57;;;12.70;99.90;;;-142.72;100.00;65101.41;4921476;29;20418;-73
2022/09/15 01:15:47;;;;;;;12.33;5.57;;;12.60;99.90;;;-142.72;100.00;65101.41;4926333;29;20456;-73
2022/09/15 01:18:40;;;;;;;12.80;4.23;;;12.60;99.90;;;-142.72;100.00;65101.41;4929526;28;20475;-73
2022/09/15 01:21:32;;;;;;;10.47;4.87;;;12.60;99.90;;;-142.72;100.00;65101.41;4937151;29;20419;-72
2022/09/15 01:24:45;;;;;;;10.90;5.90;;;12.60;99.90;;;-142.72;100.00;65101.41;4938894;29;20560;-73
2022/09/15 01:28:07;;;;;;;6.90;4.90;;;12.60;99.90;;;-142.72;100.00;65101.41;4918124;29;20495;-72
2022/09/15 01:30:41;;;;;;;13.43;4.97;;;12.60;99.90;;;-142.72;100.00;65101.41;4930297;29;20422;-74
2022/09/15 01:33:25;;;;;;;12.70;5.37;;;12.50;99.90;;;-142.72;100.00;65101.41;4933429;29;20426;-73
2022/09/15 01:36:05;;;;;;;7.03;4.33;;;12.40;99.90;;;-142.72;100.00;65101.41;4933195;29;20936;-74
2022/09/15 01:38:48;;;;;;;13.73;5.67;;;12.40;99.90;;;-142.72;100.00;65101.41;4946610;29;20418;-72
2022/09/15 01:41:24;;;;;;;7.67;5.33;;;12.40;99.90;;;-142.72;100.00;65101.41;4936062;29;20456;-73
2022/09/15 01:44:02;;;;;;;6.37;4.27;;;12.40;99.90;;;-142.72;100.00;65101.41;4931426;28;20469;-73
2022/09/15 01:46:37;;;;;;;5.47;3.90;;;12.40;99.90;;;-142.72;100.00;65101.41;4934816;29;20483;-72
2022/09/15 01:49:13;;;;;;;11.33;5.33;;;12.30;99.90;;;-142.72;100.00;65101.41;4936138;29;20440;-72
2022/09/15 01:51:46;;;;;;;9.30;4.27;;;12.40;99.90;;;-142.72;100.00;65101.41;4932195;29;20445;-73
2022/09/15 01:54:22;;;;;;;8.37;4.83;;;12.30;99.90;;;-142.72;100.00;65101.41;4920184;29;20427;-73
2022/09/15 01:56:51;;;;;;;10.73;5.83;;;12.40;99.90;;;-142.72;100.00;65101.41;4928718;29;20430;-72
2022/09/15 01:59:21;;;;;;;7.63;4.40;;;12.30;99.90;;;-142.72;100.00;65101.41;4931046;29;20450;-72
2022/09/15 02:02:01;;;;;;;7.47;5.10;;;12.40;99.90;;;-142.72;100.00;65101.41;4931032;29;20445;-72
2022/09/15 02:04:38;;;;;;;7.53;5.03;;;12.40;99.90;;;-142.72;100.00;65101.41;4932428;29;20468;-72
2022/09/15 02:07:19;;;;;;;9.00;5.83;;;12.50;99.90;;;-142.72;100.00;65101.41;4934816;28;21020;-73
2022/09/15 02:09:58;;;;;;;13.37;5.00;;;12.40;99.90;;;-142.72;100.00;65101.41;4934946;29;20535;-73
2022/09/15 02:12:37;;;;;;;6.63;4.77;;;12.40;99.90;;;-142.72;100.00;65101.41;4935758;29;20459;-73
2022/09/15 02:15:13;;;;;;;8.07;5.20;;;12.30;99.90;;;-142.72;100.00;65101.41;4936998;29;20502;-72
2022/09/15 02:17:52;;;;;;;8.70;5.90;;;12.20;99.90;;;-142.72;100.00;65101.41;4933434;29;20522;-73
2022/09/15 02:20:33;;;;;;;8.40;4.63;;;12.20;99.90;;;-142.72;100.00;65101.41;4943935;29;20499;-72
2022/09/15 02:23:09;;;;;;;6.30;4.70;;;12.20;99.90;;;-142.72;100.00;65101.41;4928298;29;20494;-72
2022/09/15 02:25:45;;;;;;;13.67;4.10;;;12.10;99.90;;;-142.72;100.00;65101.41;4927671;29;20598;-72
2022/09/15 02:28:18;;;;;;;9.73;4.73;;;12.10;99.90;;;-142.72;100.00;65101.41;4997941;23;20523;-72
2022/09/15 02:30:49;;;;;;;7.00;5.07;;;12.10;99.90;;;-142.72;100.00;65101.41;4951524;28;20459;-72
2022/09/15 02:33:24;;;;;;;7.63;5.73;;;12.10;99.90;;;-142.72;100.00;65101.41;4952114;28;20471;-71
2022/09/15 02:35:54;;;;;;;12.40;6.03;;;12.10;99.90;;;-142.72;100.00;65101.41;4954016;28;20449;-72
2022/09/15 02:38:23;;;;;;;9.80;4.27;;;12.10;99.90;;;-142.72;100.00;65101.41;4942105;29;20470;-72
2022/09/15 02:40:52;;;;;;;8.53;5.10;;;12.00;99.90;;;-142.72;100.00;65101.41;4939728;29;20587;-71
2022/09/15 02:43:22;;;;;;;7.83;4.27;;;11.90;99.90;;;-142.72;100.00;65101.41;4937974;29;20471;-71
2022/09/15 02:45:51;;;;;;;6.33;5.30;;;11.90;99.90;;;-142.72;100.00;65101.41;4933897;29;20453;-72
2022/09/15 02:48:24;;;;;;;6.33;5.17;;;11.90;99.90;;;-142.72;100.00;65101.41;4940424;29;20435;-71
2022/09/15 02:50:53;;;;;;;4.77;4.20;;;12.00;99.90;;;-142.72;100.00;65101.41;4931636;29;20409;-71
2022/09/15 02:53:22;;;;;;;10.80;5.13;;;12.10;99.90;;;-142.72;100.00;65101.41;4942609;29;20502;-72
2022/09/15 02:55:51;;;;;;;16.23;5.40;;;12.00;99.90;;;-142.72;100.00;65101.41;4924190;29;20467;-71
2022/09/15 02:58:20;;;;;;;7.57;4.70;;;12.00;99.90;;;-142.72;100.00;65101.41;4937563;29;20435;-73
2022/09/15 03:00:50;;;;;;;8.50;5.20;;;12.00;99.90;;;-142.72;100.00;65101.41;4936669;29;20496;-72
2022/09/15 03:03:20;;;;;;;5.50;4.27;;;12.00;99.90;;;-142.72;100.00;65101.41;4945466;29;20415;-72
2022/09/15 03:05:51;;;;;;;8.70;3.67;;;12.10;99.90;;;-142.72;100.00;65101.41;4930590;28;20468;-74
2022/09/15 03:08:21;;;;;;;6.90;4.97;;;11.90;99.90;;;-142.72;100.00;65101.41;4930106;29;20442;-73
2022/09/15 03:10:49;;;;;;;14.00;6.00;;;11.80;99.90;;;-142.72;100.00;65101.41;4939901;29;20420;-71
2022/09/15 03:13:18;;;;;;;9.63;4.87;;;11.80;99.90;;;-142.72;100.00;65101.41;4931088;29;20486;-72
2022/09/15 03:15:47;;;;;;;10.10;5.17;;;11.70;99.90;;;-142.72;100.00;65101.41;4947536;29;20450;-71
2022/09/15 03:18:16;;;;;;;12.73;4.50;;;11.70;99.90;;;-142.72;100.00;65101.41;4931114;29;20451;-72
2022/09/15 03:20:45;;;;;;;7.90;5.37;;;11.60;99.90;;;-142.72;100.00;65101.41;4936695;29;20418;-72
2022/09/15 03:23:15;;;;;;;14.00;4.80;;;11.60;99.90;;;-142.72;100.00;65101.41;4949732;28;20444;-72
2022/09/15 03:25:46;;;;;;;10.83;4.70;;;11.60;99.90;;;-142.72;100.00;65101.41;4946768;28;20786;-71
2022/09/15 03:28:15;;;;;;;9.17;4.67;;;11.60;99.90;;;-142.72;100.00;65101.41;4930759;29;20452;-73
2022/09/15 03:30:44;;;;;;;16.57;5.23;;;11.60;99.90;;;-142.72;100.00;65101.41;4938740;29;20432;-72
2022/09/15 03:33:13;;;;;;;6.57;5.13;;;11.60;99.90;;;-142.72;100.00;65101.41;4941123;29;20448;-71
2022/09/15 03:35:41;;;;;;;9.37;4.43;;;11.60;99.90;;;-142.72;100.00;65101.41;4935965;29;20479;-71
2022/09/15 03:38:10;;;;;;;11.60;5.20;;;11.60;99.90;;;-142.72;100.00;65101.41;4926391;29;20459;-72
2022/09/15 03:40:42;;;;;;;10.30;4.70;;;11.50;99.90;;;-142.72;100.00;65101.41;4922726;29;20407;-70
2022/09/15 03:43:12;;;;;;;7.90;5.00;;;11.50;99.90;;;-142.72;100.00;65101.41;4940654;29;20896;-72
2022/09/15 03:45:46;;;;;;;7.00;5.20;;;11.40;99.90;;;-142.72;100.00;65101.41;4954392;29;20463;-73
2022/09/15 03:48:15;;;;;;;5.90;4.80;;;11.50;99.90;;;-142.72;100.00;65101.41;4919697;29;20891;-71
2022/09/15 03:50:44;;;;;;;9.53;5.70;;;11.40;99.90;;;-142.72;100.00;65101.41;4928240;29;20437;-69
2022/09/15 03:53:13;;;;;;;8.40;5.57;;;11.30;99.90;;;-142.72;100.00;65101.41;4930392;29;20423;-72
2022/09/15 03:55:44;;;;;;;8.97;5.13;;;11.30;99.90;;;-142.72;100.00;65101.41;4936120;29;20472;-71
2022/09/15 03:58:13;;;;;;;5.20;4.40;;;11.30;99.90;;;-142.72;100.00;65101.41;4937261;29;20486;-70
2022/09/15 04:00:43;;;;;;;6.93;5.80;;;11.30;99.90;;;-142.72;100.00;65101.41;4963121;29;20643;-72
2022/09/15 04:03:13;;;;;;;8.80;6.43;;;11.30;99.90;;;-142.72;100.00;65101.41;4943821;28;20412;-72
2022/09/15 04:05:42;;;;;;;10.40;5.90;;;11.30;99.90;;;-142.72;100.00;65101.41;4955223;29;20447;-72
2022/09/15 04:08:14;;;;;;;13.83;6.33;;;11.20;99.90;;;-142.72;100.00;65101.41;4944601;29;20468;-73
2022/09/15 04:10:45;;;;;;;11.43;6.77;;;11.20;99.90;;;-142.72;100.00;65101.41;4938090;29;20478;-72
2022/09/15 04:13:14;;;;;;;11.53;5.80;;;11.30;99.90;;;-142.72;100.00;65101.41;4943595;29;20468;-73
2022/09/15 04:15:43;;;;;;;12.23;5.30;;;11.20;99.90;;;-142.72;100.00;65101.41;4934828;29;20915;-72
2022/09/15 04:18:12;;;;;;;13.13;7.27;;;11.30;99.90;;;-142.72;100.00;65101.41;4927064;29;20525;-72
2022/09/15 04:20:41;;;;;;;12.70;6.27;;;11.40;99.90;;;-142.72;100.00;65101.41;4934557;28;20448;-71
2022/09/15 04:23:10;;;;;;;13.70;6.60;;;11.50;99.90;;;-142.72;100.00;65101.41;4941044;29;20473;-71
2022/09/15 04:25:39;;;;;;;13.97;5.70;;;11.70;99.90;;;-142.72;100.00;65101.41;4919027;29;20469;-73
2022/09/15 04:28:10;;;;;;;12.07;6.00;;;11.70;99.90;;;-142.72;100.00;65101.41;4933249;29;20819;-72
2022/09/15 04:30:38;;;;;;;11.97;7.20;;;11.90;99.90;;;-142.72;100.00;65101.41;4931228;29;20457;-72
2022/09/15 04:33:07;;;;;;;9.77;6.60;;;12.00;99.90;;;-142.72;100.00;65101.41;4941278;29;20868;-73
2022/09/15 04:35:36;;;;;;;7.70;6.90;;;12.00;99.90;;;-142.72;100.00;65101.41;4918228;29;20465;-70
2022/09/15 04:38:05;;;;;;;8.40;6.00;;;12.00;99.90;;;-142.72;100.00;65101.41;4916422;29;20469;-71
2022/09/15 04:40:34;;;;;;;7.10;5.47;;;11.90;99.90;;;-142.72;100.00;65101.41;4936942;29;20442;-73
2022/09/15 04:43:03;;;;;;;16.17;5.97;;;11.90;99.90;;;-142.72;100.00;65101.41;4935662;29;20438;-71
2022/09/15 04:45:33;;;;;;;20.20;5.93;;;11.90;99.90;;;-142.72;100.00;65101.41;4929531;29;20563;-72
2022/09/15 04:48:03;;;;;;;7.00;5.50;;;11.90;99.90;;;-142.72;100.00;65101.41;4931137;29;20446;-72
2022/09/15 04:50:33;;;;;;;7.87;4.57;;;11.90;99.90;;;-142.72;100.00;65101.41;4936691;29;20436;-72
2022/09/15 04:53:03;;;;;;;11.03;5.10;;;11.90;99.90;;;-142.72;100.00;65101.41;4938468;28;20471;-71
2022/09/15 04:55:32;;;;;;;10.10;5.97;;;11.90;99.90;;;-142.72;100.00;65101.41;4928908;29;20484;-71
2022/09/15 04:58:02;;;;;;;7.00;5.10;;;11.90;99.90;;;-142.72;100.00;65101.41;4925028;29;20489;-73
2022/09/15 05:00:41;;;;;;;13.63;5.47;;;12.00;99.90;;;-142.72;100.00;65101.41;4933924;29;20419;-72
2022/09/15 05:03:12;;;;;;;8.30;5.30;;;12.00;99.90;;;-142.72;100.00;65101.41;4940890;29;20775;-71
2022/09/15 05:05:41;;;;;;;7.70;5.00;;;12.10;99.90;;;-142.72;100.00;65101.41;4937558;29;20439;-71
2022/09/15 05:08:10;;;;;;;11.80;6.50;;;12.20;99.90;;;-142.72;100.00;65101.41;4931578;29;20872;-71
2022/09/15 05:10:39;;;;;;;6.83;5.33;;;12.20;99.90;;;-142.72;100.00;65101.41;4923331;29;20467;-71
2022/09/15 05:13:08;;;;;;;7.33;4.80;;;12.20;99.90;;;-142.72;100.00;65101.41;4932434;29;20435;-71
2022/09/15 05:15:39;;;;;;;13.20;6.33;;;12.20;99.90;;;-142.72;100.00;65101.41;4934182;29;20440;-72
2022/09/15 05:18:08;;;;;;;6.53;5.40;;;12.30;99.90;;;-142.72;100.00;65101.41;4940099;29;20447;-72
2022/09/15 05:20:36;;;;;;;9.07;5.33;;;12.30;99.90;;;-142.72;100.00;65101.41;4956410;28;20450;-72
2022/09/15 05:23:05;;;;;;;10.10;6.07;;;12.30;99.90;;;-142.72;100.00;65101.41;4934130;29;20459;-70
2022/09/15 05:25:34;;;;;;;9.40;5.13;;;12.40;99.90;;;-142.72;100.00;65101.41;4935571;29;20439;-72
2022/09/15 05:28:03;;;;;;;18.10;6.20;;;12.50;99.90;;;-142.72;100.00;65101.41;4942707;28;20499;-71
2022/09/15 05:30:32;;;;;;;10.00;4.90;;;12.40;99.90;;;-142.72;100.00;65101.41;4942057;29;20443;-73
2022/09/15 05:33:11;;;;;;;7.03;5.67;;;12.50;99.90;;;-142.72;100.00;65101.41;4929020;29;20584;-72
2022/09/15 05:35:40;;;;;;;15.73;7.70;;;12.60;99.90;;;-142.72;100.00;65101.41;4935012;29;20416;-71
2022/09/15 05:38:09;;;;;;;10.30;5.80;;;12.80;99.90;;;-142.72;100.00;65101.41;4940968;28;20478;-71
2022/09/15 05:40:38;;;;;;;10.67;5.63;;;12.80;99.90;;;-142.72;100.00;65101.41;4937961;29;20463;-71
2022/09/15 05:43:07;;;;;;;13.70;6.00;;;13.00;99.90;;;-142.72;100.00;65101.41;4922991;29;20459;-70
2022/09/15 05:45:36;;;;;;;11.93;5.43;;;13.00;99.90;;;-142.72;100.00;65101.41;4931487;29;20501;-72
2022/09/15 05:48:05;;;;;;;15.23;5.60;;;13.20;99.90;;;-142.72;100.00;65101.41;4937160;29;20496;-72
2022/09/15 05:50:36;;;;;;;8.07;4.93;;;13.30;99.90;;;-142.72;100.00;65101.41;4935065;29;20431;-72
2022/09/15 05:53:06;;;;;;;9.67;5.17;;;13.40;99.90;;;-142.72;100.00;65101.41;4933533;29;20435;-71
2022/09/15 05:55:38;;;;;;;6.47;4.80;;;13.60;99.90;;;-142.72;100.00;65101.41;4940204;29;20423;-72
2022/09/15 05:58:07;;;;;;;6.13;4.40;;;13.70;99.90;;;-142.72;100.00;65101.41;4931096;28;20873;-72
2022/09/15 06:00:36;;;;;;;6.87;3.57;;;13.90;99.90;;;-142.72;100.00;65101.41;4933534;29;20436;-72
2022/09/15 06:03:05;;;;;;;7.20;4.40;;;13.90;99.90;;;-142.72;100.00;65101.41;4928949;29;20430;-72
2022/09/15 06:05:35;;;;;;;7.23;5.83;;;13.90;99.90;;;-142.72;100.00;65101.41;4941475;28;20416;-74
2022/09/15 06:08:05;;;;;;;8.17;4.40;;;14.00;99.90;;;-142.72;100.00;65101.41;4942410;29;20462;-74
2022/09/15 06:10:34;;;;;;;5.93;3.97;;;14.00;99.90;;;-142.72;100.00;65101.41;4943395;29;20453;-73
2022/09/15 06:13:02;;;;;;;7.57;4.27;;;13.90;99.90;;;-142.72;100.00;65101.41;4940725;29;20853;-71
2022/09/15 06:15:32;;;;;;;6.97;4.07;;;13.80;99.90;;;-142.72;100.00;65101.41;4942090;29;20449;-72
2022/09/15 06:18:01;;;;;;;7.93;3.93;;;13.70;99.90;;;-142.72;100.00;65101.41;4964193;28;20453;-72
2022/09/15 06:20:30;;;;;;;7.77;4.50;;;13.70;99.90;;;-142.72;100.00;65101.41;4945227;29;20453;-72
2022/09/15 06:23:00;;;;;;;7.40;4.50;;;13.70;99.90;;;-142.72;100.00;65101.41;4933169;29;20424;-73
2022/09/15 06:25:30;;;;;;;5.03;3.83;;;13.90;99.90;;;-142.72;100.00;65101.41;4929268;29;20486;-73
2022/09/15 06:27:58;;;;;;;7.10;4.30;;;14.10;99.90;;;-142.72;100.00;65101.41;4925110;29;20620;-73
2022/09/15 06:30:39;;;;;;;12.53;4.10;;;14.40;99.90;;;-142.72;100.00;65101.41;4934311;29;20436;-72
2022/09/15 06:33:08;;;;;;;4.23;3.40;;;14.50;25.80;;;-142.72;100.00;65101.41;4932700;29;20436;-72
2022/09/15 06:35:37;;;;;;;4.73;3.50;;;14.60;1.00;;;-142.72;100.00;65101.41;4933856;29;20817;-71
2022/09/15 06:38:08;;;;;;;11.83;4.40;;;14.60;1.00;;;-142.72;100.00;65101.41;4935358;29;20485;-72
2022/09/15 06:40:37;;;;;;;5.33;3.63;;;14.80;1.00;;;-142.72;100.00;65101.41;4927935;29;20427;-74
2022/09/15 06:43:06;;;;;;;8.33;4.20;;;14.80;1.00;;;-142.72;100.00;65101.41;4934864;29;20447;-74
2022/09/15 06:45:35;;;;;;;7.00;3.63;;;14.70;1.00;;;-142.72;100.00;65101.41;4946406;29;20792;-73
2022/09/15 06:48:04;;;;;;;5.97;3.60;;;14.70;1.00;;;-142.72;100.00;65101.41;4936705;29;21024;-73
2022/09/15 06:50:55;;;;;;;5.10;3.07;;;14.80;1.00;;;-142.72;100.00;65101.41;4928551;29;20488;-74
2022/09/15 06:53:36;;;;;;;4.97;3.03;;;14.70;1.00;;;-142.72;100.00;65101.41;4929217;29;20451;-73
2022/09/15 06:56:13;;;;;;;7.23;3.60;;;14.80;1.00;;;-142.72;100.00;65101.41;4931568;29;20417;-73
2022/09/15 06:58:44;;;;;;;7.73;4.20;;;14.70;1.00;;;-142.72;100.00;65101.41;4926176;29;20440;-74
2022/09/15 07:01:20;;;;;;;11.53;4.73;;;14.80;1.00;;;-142.72;100.00;65101.41;4930385;29;20412;-74
2022/09/15 07:03:49;;;;;;;7.10;4.30;;;14.80;1.00;;;-142.72;100.00;65101.41;4935310;29;20773;-75
2022/09/15 07:06:19;;;;;;;9.87;3.80;;;14.60;1.00;;;-142.72;100.00;65101.41;4940831;29;21009;-74
2022/09/15 07:08:52;;;;;;;6.10;3.77;;;14.60;1.00;;;-142.72;100.00;65101.41;4924357;29;20432;-73
2022/09/15 07:11:21;;;;;;;6.53;3.50;;;14.70;1.00;;;-142.72;100.00;65101.41;4921133;29;20437;-72
2022/09/15 07:13:52;;;;;;;6.50;2.87;;;14.80;1.00;;;-142.72;100.00;65101.41;4932173;29;20451;-73
2022/09/15 07:16:24;;;;;;;8.93;3.90;;;14.70;1.00;;;-142.72;100.00;65101.41;4940245;29;20427;-75
2022/09/15 07:19:00;;;;;;;12.43;4.33;;;14.70;1.00;;;-142.72;100.00;65101.41;4925895;29;20431;-73
2022/09/15 07:21:29;;;;;;;8.67;4.90;;;14.70;1.00;;;-142.72;100.00;65101.41;4944852;29;20419;-73
2022/09/15 07:24:00;;;;;;;7.93;4.20;;;14.80;1.00;;;-142.72;100.00;65101.41;4939099;29;20411;-74
2022/09/15 07:26:34;;;;;;;6.87;4.60;;;14.80;1.00;;;-142.72;100.00;65101.41;4947704;29;20958;-74
2022/09/15 07:29:06;;;;;;;7.13;4.63;;;15.00;1.00;;;-142.72;100.00;65101.41;4934426;29;20419;-73
2022/09/15 07:31:38;;;;;;;5.73;3.90;;;15.20;1.00;;;-142.72;100.00;65101.41;4939032;28;20448;-74
2022/09/15 07:34:08;;;;;;;5.90;3.73;;;15.20;99.90;;;-142.72;100.00;65101.41;4935030;29;20436;-73
2022/09/15 07:36:37;;;;;;;8.67;3.60;;;15.30;99.90;;;-142.72;100.00;65101.41;4936040;29;20536;-71
2022/09/15 07:39:07;;;;;;;11.40;3.77;;;15.30;99.90;;;-142.72;100.00;65101.41;4937369;29;20427;-73
2022/09/15 07:41:39;;;;;;;9.40;3.47;;;15.40;99.90;;;-142.72;100.00;65101.41;4936889;29;20412;-72
2022/09/15 07:44:10;;;;;;;6.63;3.40;;;15.60;99.90;;;-142.72;100.00;65101.41;4936270;28;20459;-75
2022/09/15 07:46:39;;;;;;;5.83;3.23;;;15.60;99.90;;;-142.72;100.00;65101.41;4933516;29;20470;-72
2022/09/15 07:49:10;;;;;;;5.70;3.17;;;15.40;99.90;;;-142.72;100.00;65101.41;4947573;29;20439;-72
2022/09/15 07:51:39;;;;;;;5.93;3.90;;;15.50;99.90;;;-142.72;100.00;65101.41;4934904;29;20451;-71
2022/09/15 07:54:10;;;;;;;10.03;3.10;;;15.60;99.90;;;-142.72;100.00;65101.41;4941506;29;20454;-74
2022/09/15 07:56:38;;;;;;;4.93;3.17;;;15.60;99.90;;;-142.72;100.00;65101.41;4936717;29;20419;-72
2022/09/15 07:59:07;;;;;;;3.63;2.97;;;15.60;99.90;;;-142.72;100.00;65101.41;4938223;29;20448;-73
2022/09/15 08:01:36;;;;;;;9.70;3.47;;;15.70;99.90;;;-142.72;100.00;65101.41;4939333;29;20449;-74
2022/09/15 08:04:05;;;;;;;11.77;2.90;;;15.60;99.90;;;-142.72;100.00;65101.41;4939252;29;20477;-72
2022/09/15 08:06:34;;;;;;;3.53;2.60;;;15.60;99.90;;;-142.72;100.00;65101.41;4936004;29;20414;-71
2022/09/15 08:09:24;;;;;;;5.33;3.23;;;15.50;99.90;;;-142.72;100.00;65101.41;4928371;29;20442;-73
2022/09/15 08:11:53;;;;;;;5.27;2.87;;;15.50;99.90;;;-142.72;100.00;65101.41;4928942;29;20430;-73
2022/09/15 08:14:25;;;;;;;5.27;2.70;;;15.70;99.90;;;-142.72;100.00;65101.41;4940418;29;20458;-71
2022/09/15 08:16:54;;;;;;;4.77;2.20;;;16.10;99.90;;;-142.72;100.00;65101.41;4937577;29;20441;-73
2022/09/15 08:19:23;;;;;;;10.23;3.03;;;16.20;99.90;;;-142.72;100.00;65101.41;4938290;29;20417;-72
2022/09/15 08:21:52;;;;;;;3.50;2.43;;;16.40;99.90;;;-142.72;100.00;65101.41;4920816;29;20427;-72
2022/09/15 08:24:33;;;;;;;12.97;2.60;;;16.60;99.90;;;-142.72;100.00;65101.41;4929467;29;20452;-73
2022/09/15 08:27:13;;;;;;;6.90;3.10;;;16.60;99.90;;;-142.72;100.00;65101.41;4929889;29;20573;-72
2022/09/15 08:29:42;;;;;;;11.70;4.00;;;16.80;99.90;;;-142.72;100.00;65101.41;4898297;29;20480;-76
2022/09/15 08:32:11;;;;;;;6.90;3.23;;;16.90;99.90;;;-142.72;100.00;65101.41;4907008;29;20455;-74
2022/09/15 08:34:40;;;;;;;7.07;3.00;;;16.90;99.90;;;-142.72;100.00;65101.41;4915300;29;20813;-74
2022/09/15 08:37:09;;;;;;;5.97;2.37;;;16.80;99.90;;;-142.72;100.00;65101.41;4894137;29;20656;-75
2022/09/15 08:39:39;;;;;;;5.80;2.50;;;16.90;99.90;;;-142.72;100.00;65101.41;4902488;29;20855;-75
2022/09/15 08:42:16;;;;;;;4.83;2.47;;;17.00;99.90;;;-142.72;100.00;65101.41;4890825;29;20424;-73
2022/09/15 08:44:54;;;;;;;3.30;2.40;;;17.00;99.90;;;-142.72;100.00;65101.41;4896920;29;20502;-75
2022/09/15 08:47:29;;;;;;;5.57;2.47;;;17.00;99.90;;;-142.72;100.00;65101.41;4891653;29;20516;-74
2022/09/15 08:50:06;;;;;;;6.47;2.43;;;17.10;99.90;;;-142.72;100.00;65101.41;4892413;29;20935;-74
2022/09/15 08:52:42;;;;;;;5.53;2.27;;;16.90;99.90;;;-142.72;100.00;65101.41;4894065;29;20424;-74
2022/09/15 08:55:22;;;;;;;3.80;2.53;;;16.90;99.90;;;-142.72;100.00;65101.41;4899800;29;20461;-75
2022/09/15 08:57:54;;;;;;;5.83;2.60;;;17.10;99.90;;;-142.72;100.00;65101.41;4887961;29;20824;-74
2022/09/15 09:00:23;;;;;;;4.53;1.87;;;17.10;99.90;;;-142.72;100.00;65101.41;4895497;29;20454;-73
2022/09/15 09:03:22;;;;;;;6.20;2.83;;;17.00;99.90;;;-142.72;100.00;65101.41;4897625;29;20542;-74
2022/09/15 09:06:00;;;;;;;3.90;1.90;;;16.70;99.90;;;-142.72;100.00;65101.41;4899537;29;20816;-75
2022/09/15 09:09:03;;;;;;;5.43;2.43;;;16.60;99.90;;;-142.72;100.00;65101.41;4894812;29;20491;-74
2022/09/15 09:12:00;;;;;;;4.73;2.47;;;16.60;99.90;;;-142.72;100.00;65101.41;4888328;29;20882;-73
2022/09/15 09:14:46;;;;;;;5.13;2.60;;;16.70;99.90;;;-142.72;100.00;65101.41;4887045;29;20473;-75
2022/09/15 09:17:55;;;;;;;6.50;2.13;;;16.90;99.90;;;-142.72;100.00;65101.41;4894027;29;20429;-75
2022/09/15 09:20:42;;;;;;;8.00;2.50;;;16.90;96.40;;;-142.72;100.00;65101.41;4889863;29;20561;-74
2022/09/15 09:23:17;;;;;;;3.70;2.30;;;16.90;96.30;;;-142.72;100.00;65101.41;4887111;29;20520;-73
2022/09/15 09:25:48;;;;;;;6.47;2.30;;;16.90;99.90;;;-142.72;100.00;65101.41;4894388;29;20450;-74
2022/09/15 09:28:30;;;;;;;8.33;2.80;;;17.00;96.50;;;-142.72;100.00;65101.41;4889592;29;20465;-75
2022/09/15 09:31:06;;;;;;;5.20;2.30;;;17.10;99.90;;;-142.72;100.00;65101.41;4893120;29;20417;-75
2022/09/15 09:33:44;;;;;;;6.83;2.57;;;17.10;96.80;;;-142.72;100.00;65101.41;4901596;29;20434;-75
2022/09/15 09:36:16;;;;;;;2.53;1.80;;;17.20;91.60;;;-142.72;100.00;65101.41;4899299;29;20449;-75
2022/09/15 09:38:48;;;;;;;4.00;2.10;;;17.20;67.30;;;-142.72;100.00;65101.41;4907817;29;20396;-75
2022/09/15 09:41:21;;;;;;;3.93;1.83;;;17.30;63.80;;;-142.72;100.00;65101.41;4908847;29;20438;-77
2022/09/15 09:43:55;;;;;;;8.43;2.13;;;17.20;57.40;;;-142.72;100.00;65101.41;4894488;29;20744;-74
2022/09/15 09:46:24;;;;;;;8.30;3.70;;;17.20;65.30;;;-142.72;100.00;65101.41;4891059;29;20828;-76
2022/09/15 09:49:02;;;;;;;3.60;2.30;;;17.40;73.30;;;-142.72;100.00;65101.41;4897042;29;20482;-76
2022/09/15 09:51:35;;;;;;;3.37;2.03;;;17.50;60.60;;;-142.72;100.00;65101.41;4903326;29;20438;-75
2022/09/15 09:54:16;;;;;;;6.40;1.93;;;17.70;48.90;;;-142.72;100.00;65101.41;4902317;29;20899;-76
2022/09/15 09:56:47;;;;;;;3.50;2.10;;;17.80;40.10;;;-142.72;100.00;65101.41;4902151;29;20443;-74
2022/09/15 09:59:39;;;;;;;5.03;2.37;;;17.80;39.50;;;-142.72;100.00;65101.41;4892652;29;20454;-76
2022/09/15 10:02:18;;;;;;;3.80;1.70;;;18.00;33.80;;;-142.72;100.00;65101.41;4890608;29;20424;-75
2022/09/15 10:04:50;;;;;;;4.17;2.90;;;18.40;28.30;;;-142.72;100.00;65101.41;4896304;29;20467;-74
2022/09/15 10:07:22;;;;;;;5.13;2.10;;;19.00;23.80;;;-142.72;100.00;65101.41;4897664;29;20483;-76
2022/09/15 10:09:55;;;;;;;3.17;1.30;;;19.30;18.90;;;-142.72;100.00;65101.41;4896403;29;20505;-75
2022/09/15 10:12:30;;;;;;;2.53;1.63;;;19.10;12.40;;;-142.72;100.00;65101.41;4899010;29;20668;-74
2022/09/15 10:15:05;;;;;;;6.90;1.23;;;18.90;10.70;;;-142.72;100.00;65101.41;4897431;29;20467;-75
2022/09/15 10:17:44;;;;;;;2.43;1.20;;;18.70;10.00;;;-142.72;100.00;65101.41;4900346;29;20442;-74
2022/09/15 10:20:31;;;;;;;4.60;2.10;;;18.60;11.60;;;-142.72;100.00;65101.41;4894389;29;20498;-74
2022/09/15 10:23:07;;;;;;;2.47;1.60;;;18.50;11.10;;;-142.72;100.00;65101.41;4909267;29;20489;-74